Time;durP1;ratioP1;P1;durP2;ratioP2;P2;SDS_P1;SDS_P2;PMS_P1;PMS_P2;Temp;Humidity;BMP_temperature;BMP_pressure;BME280_temperature;BME280_humidity;BME280_pressure;Samples;Min_cycle;Max_cycle;Signal;HPM_P1;HPM_P2
2022/04/22 00:01:50;;;;;;;1.50;1.17;;;9.20;99.90;;;;;;5007011;28;20652;-83
2022/04/22 00:04:16;;;;;;;11.13;1.10;;;9.10;99.90;;;;;;4999747;28;20240;-82
2022/04/22 00:06:41;;;;;;;2.67;0.63;;;9.10;99.90;;;;;;5000326;28;20544;-82
2022/04/22 00:09:07;;;;;;;2.43;1.23;;;9.10;99.90;;;;;;5007282;28;21096;-82
2022/04/22 00:11:32;;;;;;;2.43;0.97;;;9.10;99.90;;;;;;5001276;28;20204;-82
2022/04/22 00:14:00;;;;;;;0.67;0.67;;;9.10;99.90;;;;;;5016667;28;20195;-82
2022/04/22 00:16:27;;;;;;;1.10;1.03;;;9.10;99.90;;;;;;5007479;28;20292;-83
2022/04/22 00:18:54;;;;;;;0.80;0.80;;;9.10;99.90;;;;;;5000442;28;20733;-82
2022/04/22 00:21:19;;;;;;;1.70;1.23;;;9.10;99.90;;;;;;5006345;28;20185;-83
2022/04/22 00:23:45;;;;;;;1.03;0.90;;;9.10;99.90;;;;;;5005769;28;20245;-83
2022/04/22 00:26:11;;;;;;;2.77;1.00;;;9.10;99.90;;;;;;5015508;28;20194;-83
2022/04/22 00:28:37;;;;;;;3.53;1.33;;;9.10;99.90;;;;;;5006094;28;20222;-83
2022/04/22 00:31:03;;;;;;;1.43;0.73;;;9.10;99.90;;;;;;5007150;28;20221;-83
2022/04/22 00:33:29;;;;;;;0.90;0.90;;;9.10;99.90;;;;;;5015173;28;20198;-83
2022/04/22 00:35:54;;;;;;;0.90;0.90;;;9.10;99.90;;;;;;5007228;28;20268;-83
2022/04/22 00:38:20;;;;;;;0.67;0.47;;;9.00;99.90;;;;;;5001336;28;20232;-83
2022/04/22 00:40:45;;;;;;;0.83;0.83;;;9.00;99.90;;;;;;5001425;28;20225;-83
2022/04/22 00:43:19;;;;;;;1.03;0.93;;;9.00;99.90;;;;;;5005716;28;20214;-84
2022/04/22 00:45:45;;;;;;;0.73;0.73;;;9.00;99.90;;;;;;5000050;28;20193;-83
2022/04/22 00:48:11;;;;;;;1.93;1.83;;;8.90;99.90;;;;;;5015780;28;20184;-83
2022/04/22 00:50:38;;;;;;;0.43;0.43;;;8.90;99.90;;;;;;5003337;28;20206;-83
2022/04/22 00:53:05;;;;;;;0.87;0.73;;;8.90;99.90;;;;;;5000686;28;20202;-83
2022/04/22 00:55:31;;;;;;;0.50;0.50;;;8.90;99.90;;;;;;5009962;28;20225;-82
2022/04/22 00:57:58;;;;;;;1.60;1.10;;;8.90;99.90;;;;;;5009997;28;20198;-83
2022/04/22 01:00:24;;;;;;;0.70;0.70;;;8.90;99.90;;;;;;5003174;28;20193;-83
2022/04/22 01:02:49;;;;;;;1.30;1.17;;;8.90;99.90;;;;;;5000015;28;20678;-83
2022/04/22 01:10:43;;;;;;;1.70;1.30;;;8.90;99.90;;;;;;5006321;28;20191;-83
2022/04/22 01:13:09;;;;;;;2.53;1.40;;;8.80;99.90;;;;;;5000423;28;20188;-83
2022/04/22 01:15:36;;;;;;;1.60;0.87;;;8.80;99.90;;;;;;5001260;28;20251;-82
2022/04/22 01:18:02;;;;;;;0.77;0.77;;;8.80;99.90;;;;;;5000774;28;20209;-82
2022/04/22 01:20:28;;;;;;;1.10;1.10;;;8.80;99.90;;;;;;5000412;28;20417;-83
2022/04/22 01:22:53;;;;;;;0.50;0.50;;;8.80;99.90;;;;;;5006809;28;20298;-82
2022/04/22 01:25:20;;;;;;;0.77;0.77;;;8.70;99.90;;;;;;5000225;28;20285;-82
2022/04/22 01:27:52;;;;;;;1.67;1.47;;;8.70;99.90;;;;;;4999310;28;20213;-83
2022/04/22 01:30:23;;;;;;;1.67;1.57;;;8.70;99.90;;;;;;4999141;28;20220;-83
2022/04/22 01:32:52;;;;;;;0.87;0.87;;;8.60;99.90;;;;;;4998898;28;20202;-82
2022/04/22 01:35:18;;;;;;;0.93;0.70;;;8.60;99.90;;;;;;5000038;28;20966;-83
2022/04/22 01:37:44;;;;;;;2.43;1.20;;;8.60;99.90;;;;;;4997874;28;20815;-83
2022/04/22 01:40:12;;;;;;;1.57;1.47;;;8.60;99.90;;;;;;4999767;28;21126;-83
2022/04/22 01:42:37;;;;;;;2.00;1.33;;;8.60;99.90;;;;;;4998953;28;20185;-82
2022/04/22 01:45:05;;;;;;;3.97;1.13;;;8.50;99.90;;;;;;5014933;28;20224;-82
2022/04/22 01:47:30;;;;;;;1.30;1.13;;;8.50;99.90;;;;;;5000560;28;20200;-83
2022/04/22 01:49:56;;;;;;;0.97;0.93;;;8.50;99.90;;;;;;5006449;28;20211;-82
2022/04/22 01:52:22;;;;;;;0.93;0.93;;;8.50;99.90;;;;;;4998331;28;20196;-82
2022/04/22 01:54:51;;;;;;;1.00;1.00;;;8.50;99.90;;;;;;5006021;28;20383;-84
2022/04/22 01:57:17;;;;;;;4.53;2.17;;;8.40;99.90;;;;;;4999628;28;20324;-83
2022/04/22 01:59:44;;;;;;;6.23;0.73;;;8.40;99.90;;;;;;5004582;28;20298;-83
2022/04/22 02:02:10;;;;;;;1.23;0.97;;;8.40;99.90;;;;;;5014607;28;20192;-83
2022/04/22 02:04:36;;;;;;;0.97;0.57;;;8.40;99.90;;;;;;5004060;28;20190;-83
2022/04/22 02:07:02;;;;;;;1.93;1.20;;;8.40;99.90;;;;;;5013717;28;20213;-82
2022/04/22 02:09:27;;;;;;;4.03;0.80;;;8.40;99.90;;;;;;4999575;28;20213;-84
2022/04/22 02:11:53;;;;;;;2.40;1.13;;;8.40;99.90;;;;;;4997666;28;20193;-83
2022/04/22 02:14:19;;;;;;;1.00;0.90;;;8.40;99.90;;;;;;5004508;28;20213;-82
2022/04/22 02:16:44;;;;;;;2.37;0.43;;;8.50;99.90;;;;;;5006032;28;20202;-82
2022/04/22 02:19:10;;;;;;;0.83;0.67;;;8.50;99.90;;;;;;5005541;28;20204;-83
2022/04/22 02:21:36;;;;;;;1.33;1.33;;;8.50;99.90;;;;;;4999402;28;20191;-83
2022/04/22 02:24:01;;;;;;;2.23;1.00;;;8.40;99.90;;;;;;5003702;28;20658;-83
2022/04/22 02:26:27;;;;;;;1.87;1.50;;;8.50;99.90;;;;;;4999383;28;20192;-83
2022/04/22 02:28:53;;;;;;;3.07;1.70;;;8.40;99.90;;;;;;4999098;28;20286;-83
2022/04/22 02:31:18;;;;;;;1.87;0.93;;;8.40;99.90;;;;;;4999250;28;20643;-83
2022/04/22 02:33:44;;;;;;;0.87;0.87;;;8.50;99.90;;;;;;5003453;28;20237;-83
2022/04/22 02:36:10;;;;;;;1.90;1.80;;;8.50;99.90;;;;;;5005095;28;20218;-83
2022/04/22 02:38:36;;;;;;;7.53;1.40;;;8.50;99.90;;;;;;5004414;28;20211;-83
2022/04/22 02:46:32;;;;;;;1.20;1.20;;;8.50;99.90;;;;;;4999939;28;20196;-82
2022/04/22 02:48:59;;;;;;;1.20;0.77;;;8.50;99.90;;;;;;5005469;28;20207;-83
2022/04/22 02:51:25;;;;;;;2.97;1.27;;;8.50;99.90;;;;;;4996361;28;20189;-83
2022/04/22 02:53:52;;;;;;;0.40;0.40;;;8.50;99.90;;;;;;5004463;28;20660;-83
2022/04/22 02:56:19;;;;;;;0.80;0.80;;;8.60;99.90;;;;;;5003808;28;20214;-83
2022/04/22 02:58:45;;;;;;;0.80;0.80;;;8.50;99.90;;;;;;4999378;28;20210;-82
2022/04/22 03:01:11;;;;;;;6.63;1.33;;;8.40;99.90;;;;;;4998751;28;20189;-82
2022/04/22 03:03:36;;;;;;;1.13;1.10;;;8.40;99.90;;;;;;5003911;28;20189;-83
2022/04/22 03:06:03;;;;;;;3.97;1.00;;;8.40;99.90;;;;;;5014636;28;20188;-83
2022/04/22 03:08:29;;;;;;;1.07;0.87;;;8.40;99.90;;;;;;4998952;28;20237;-83
2022/04/22 03:10:55;;;;;;;0.77;0.77;;;8.50;99.90;;;;;;5000221;28;20251;-83
2022/04/22 03:13:20;;;;;;;0.90;0.83;;;8.40;99.90;;;;;;4998987;28;20674;-83
2022/04/22 03:15:47;;;;;;;2.53;1.60;;;8.40;99.90;;;;;;4998912;28;20236;-82
2022/04/22 03:18:12;;;;;;;1.33;1.17;;;8.40;99.90;;;;;;5005738;28;20210;-82
2022/04/22 03:20:38;;;;;;;1.70;1.00;;;8.50;99.90;;;;;;5004573;28;20219;-83
2022/04/22 03:23:04;;;;;;;1.13;0.90;;;8.50;99.90;;;;;;5005417;28;20186;-82
2022/04/22 03:25:30;;;;;;;0.63;0.63;;;8.50;99.90;;;;;;5005643;28;20178;-84
2022/04/22 03:27:55;;;;;;;1.10;1.00;;;8.50;99.90;;;;;;5001407;28;20192;-83
2022/04/22 03:30:21;;;;;;;1.20;1.10;;;8.40;99.90;;;;;;4999832;28;20314;-83
2022/04/22 03:32:47;;;;;;;0.87;0.87;;;8.40;99.90;;;;;;5014385;28;20240;-83
2022/04/22 03:35:12;;;;;;;0.97;0.97;;;8.40;99.90;;;;;;5003131;28;20257;-84
2022/04/22 03:37:38;;;;;;;1.53;0.67;;;8.40;99.90;;;;;;5009431;28;20542;-83
2022/04/22 03:40:05;;;;;;;1.77;0.77;;;8.40;99.90;;;;;;5019019;28;20285;-83
2022/04/22 03:42:32;;;;;;;2.33;1.00;;;8.30;99.90;;;;;;5009120;28;20281;-83
2022/04/22 03:44:57;;;;;;;1.33;1.23;;;8.40;99.90;;;;;;5018739;28;20255;-83
2022/04/22 03:47:23;;;;;;;1.43;1.33;;;8.30;99.90;;;;;;5003393;28;20666;-83
2022/04/22 03:49:49;;;;;;;1.53;1.27;;;8.30;99.90;;;;;;5018134;28;20242;-83
2022/04/22 03:52:15;;;;;;;1.83;1.03;;;8.30;99.90;;;;;;5008218;28;20190;-83
2022/04/22 03:54:41;;;;;;;1.73;0.83;;;8.30;99.90;;;;;;5001556;28;20738;-83
2022/04/22 03:59:51;;;;;;;0.90;0.67;;;8.30;99.90;;;;;;5003390;28;21195;-83
2022/04/22 04:02:17;;;;;;;0.60;0.60;;;8.20;99.90;;;;;;5019078;28;20176;-83
2022/04/22 04:04:42;;;;;;;1.30;0.90;;;8.20;99.90;;;;;;5018225;28;20204;-82
2022/04/22 04:07:08;;;;;;;1.30;0.50;;;8.20;99.90;;;;;;5002957;28;21304;-83
2022/04/22 04:17:45;;;;;;;1.00;0.97;;;8.50;99.90;;;;;;5004220;28;20694;-84
2022/04/22 04:25:40;;;;;;;1.20;0.83;;;8.50;99.90;;;;;;5001710;28;20208;-82
2022/04/22 04:28:09;;;;;;;2.03;1.23;;;8.50;99.90;;;;;;5008349;28;20665;-83
2022/04/22 04:30:38;;;;;;;0.97;0.70;;;8.40;99.90;;;;;;5007605;28;20333;-83
2022/04/22 04:33:05;;;;;;;0.80;0.80;;;8.50;99.90;;;;;;5002156;28;20187;-82
2022/04/22 04:35:31;;;;;;;1.10;1.00;;;8.50;99.90;;;;;;5003724;28;20295;-82
2022/04/22 04:37:56;;;;;;;1.43;0.90;;;8.50;99.90;;;;;;5008517;28;20264;-82
2022/04/22 04:40:22;;;;;;;2.23;1.27;;;8.50;99.90;;;;;;5008296;28;20216;-83
2022/04/22 04:42:47;;;;;;;1.80;1.10;;;8.60;99.90;;;;;;5002505;28;20199;-82
2022/04/22 04:45:13;;;;;;;1.60;1.50;;;8.60;99.90;;;;;;5007967;28;20201;-82
2022/04/22 04:47:43;;;;;;;1.53;1.13;;;8.60;99.90;;;;;;5008660;28;20214;-83
2022/04/22 04:50:10;;;;;;;4.17;2.10;;;8.60;99.90;;;;;;5001726;28;20239;-83
2022/04/22 04:52:37;;;;;;;1.53;0.80;;;8.70;99.90;;;;;;5001989;28;20190;-83
2022/04/22 04:55:07;;;;;;;1.17;1.07;;;8.70;99.90;;;;;;5000096;28;20203;-82
2022/04/22 04:57:33;;;;;;;1.07;0.73;;;8.80;99.90;;;;;;5008346;28;20194;-83
2022/04/22 04:59:59;;;;;;;1.20;0.80;;;8.80;99.90;;;;;;5003569;28;20207;-82
2022/04/22 05:02:25;;;;;;;1.00;0.90;;;8.90;99.90;;;;;;5017425;28;20238;-83
2022/04/22 05:04:50;;;;;;;0.83;0.80;;;8.90;99.90;;;;;;5002276;28;20234;-83
2022/04/22 05:07:16;;;;;;;0.93;0.93;;;8.90;99.90;;;;;;5018969;28;20305;-82
2022/04/22 05:09:41;;;;;;;0.20;0.20;;;9.00;99.90;;;;;;5002624;28;20240;-82
2022/04/22 05:12:10;;;;;;;1.27;1.17;;;9.10;99.90;;;;;;5006596;28;20624;-81
2022/04/22 05:14:36;;;;;;;1.27;0.83;;;9.10;99.90;;;;;;5005584;28;20310;-82
2022/04/22 05:17:01;;;;;;;1.00;1.00;;;9.10;99.90;;;;;;5001371;28;20811;-81
2022/04/22 05:19:27;;;;;;;0.43;0.43;;;9.20;99.90;;;;;;5006416;28;20252;-81
2022/04/22 05:21:55;;;;;;;1.77;0.77;;;9.30;99.90;;;;;;5002342;28;20193;-80
2022/04/22 05:24:20;;;;;;;0.83;0.63;;;9.40;99.90;;;;;;5013185;28;20186;-78
2022/04/22 05:26:46;;;;;;;1.23;0.77;;;9.40;99.90;;;;;;4998202;28;20185;-78
2022/04/22 05:34:40;;;;;;;1.23;0.50;;;9.60;99.90;;;;;;4998960;28;20260;-79
2022/04/22 05:37:05;;;;;;;0.53;0.50;;;9.70;99.90;;;;;;4998450;28;20186;-79
2022/04/22 05:39:31;;;;;;;0.80;0.80;;;9.80;99.90;;;;;;4998236;28;20204;-79
2022/04/22 05:42:00;;;;;;;0.80;0.80;;;9.90;99.90;;;;;;5004464;28;20182;-79
2022/04/22 05:44:26;;;;;;;0.53;0.53;;;10.00;99.90;;;;;;5000056;28;20179;-79
2022/04/22 05:46:51;;;;;;;1.93;1.63;;;10.00;99.90;;;;;;5003979;28;20217;-79
2022/04/22 05:49:18;;;;;;;0.93;0.90;;;10.10;99.90;;;;;;5014427;28;20291;-79
2022/04/22 05:51:43;;;;;;;2.63;0.83;;;10.20;99.90;;;;;;4997250;28;20649;-79
2022/04/22 05:54:09;;;;;;;3.33;1.20;;;10.30;99.90;;;;;;5003669;28;20202;-79
2022/04/22 05:56:34;;;;;;;2.33;0.57;;;10.30;99.90;;;;;;5005032;28;20237;-79
2022/04/22 05:59:00;;;;;;;1.37;1.00;;;10.40;99.90;;;;;;4997775;28;20233;-79
2022/04/22 06:01:25;;;;;;;0.40;0.40;;;10.50;99.90;;;;;;4999323;28;20186;-79
2022/04/22 06:03:51;;;;;;;0.60;0.60;;;10.50;99.90;;;;;;4999399;28;20633;-79
2022/04/22 06:06:16;;;;;;;1.43;0.90;;;10.50;99.90;;;;;;4999234;28;20264;-79
2022/04/22 06:11:26;;;;;;;0.53;0.37;;;10.80;99.90;;;;;;4997695;28;20190;-79
2022/04/22 06:13:51;;;;;;;0.97;0.67;;;11.00;99.90;;;;;;4997385;28;20192;-79
2022/04/22 06:16:17;;;;;;;1.43;0.90;;;11.00;99.90;;;;;;4999169;28;20203;-79
2022/04/22 06:18:42;;;;;;;0.53;0.53;;;11.20;99.90;;;;;;4998536;28;20219;-80
2022/04/22 06:21:08;;;;;;;0.63;0.63;;;11.20;99.90;;;;;;5010935;28;20245;-79
2022/04/22 06:23:34;;;;;;;0.77;0.77;;;11.10;99.90;;;;;;4996979;28;20582;-80
2022/04/22 06:26:00;;;;;;;1.00;0.70;;;11.00;99.90;;;;;;5005310;28;20195;-80
2022/04/22 06:28:25;;;;;;;0.97;0.80;;;11.00;99.90;;;;;;4996881;28;20207;-80
2022/04/22 06:30:51;;;;;;;0.23;0.23;;;11.30;99.90;;;;;;5012681;28;20187;-80
2022/04/22 06:33:18;;;;;;;0.53;0.53;;;11.40;99.90;;;;;;4994764;28;20187;-80
2022/04/22 06:35:44;;;;;;;0.53;0.40;;;11.50;99.90;;;;;;4995962;28;20571;-80
2022/04/22 06:38:15;;;;;;;1.00;0.67;;;11.80;99.90;;;;;;4996487;28;20183;-80
2022/04/22 06:46:09;;;;;;;0.87;0.83;;;11.60;99.90;;;;;;4994491;28;20876;-80
2022/04/22 06:48:35;;;;;;;0.77;0.60;;;11.40;99.90;;;;;;4996852;28;20290;-79
2022/04/22 06:51:05;;;;;;;0.50;0.50;;;11.70;99.90;;;;;;4997509;28;20196;-79
2022/04/22 06:53:30;;;;;;;1.07;0.87;;;11.80;99.90;;;;;;4996080;28;20194;-80
2022/04/22 06:56:00;;;;;;;0.83;0.83;;;11.80;99.90;;;;;;5011914;28;20203;-80
2022/04/22 06:58:29;;;;;;;0.57;0.50;;;11.90;99.90;;;;;;5011651;28;20199;-79
2022/04/22 07:00:54;;;;;;;0.60;0.60;;;11.90;99.90;;;;;;4995116;28;20194;-80
2022/04/22 07:03:20;;;;;;;0.20;0.20;;;11.70;99.90;;;;;;4996809;28;20187;-80
2022/04/22 07:05:47;;;;;;;0.97;0.97;;;11.80;99.90;;;;;;4996228;28;20219;-80
2022/04/22 07:08:14;;;;;;;0.80;0.80;;;12.00;99.90;;;;;;4995209;28;20210;-79
2022/04/22 07:10:44;;;;;;;0.47;0.47;;;11.90;99.90;;;;;;5014117;28;20199;-79
2022/04/22 07:13:10;;;;;;;0.60;0.60;;;12.00;99.90;;;;;;5000986;28;20214;-80
2022/04/22 07:15:36;;;;;;;0.63;0.53;;;12.30;99.90;;;;;;4998536;28;20228;-80
2022/04/22 07:18:02;;;;;;;0.53;0.30;;;12.50;99.90;;;;;;5001179;28;20183;-80
2022/04/22 07:20:28;;;;;;;0.53;0.43;;;12.40;99.90;;;;;;4997799;28;20206;-79
2022/04/22 07:22:54;;;;;;;0.73;0.73;;;12.60;99.90;;;;;;5006004;28;20183;-80
2022/04/22 07:25:21;;;;;;;0.97;0.97;;;12.60;99.90;;;;;;5001198;28;20619;-80
2022/04/22 07:27:48;;;;;;;0.53;0.40;;;12.60;99.90;;;;;;5006059;28;20195;-80
2022/04/22 07:30:16;;;;;;;0.47;0.40;;;12.60;99.90;;;;;;5002251;28;20203;-80
2022/04/22 07:32:45;;;;;;;0.33;0.33;;;12.80;99.90;;;;;;4999304;28;20253;-80
2022/04/22 07:35:13;;;;;;;2.93;0.90;;;12.90;99.90;;;;;;4999487;28;21256;-80
2022/04/22 07:37:43;;;;;;;0.73;0.70;;;12.80;99.90;;;;;;5005178;28;20188;-80
2022/04/22 07:40:09;;;;;;;0.83;0.83;;;13.00;99.90;;;;;;4998405;28;20208;-80
2022/04/22 07:42:36;;;;;;;0.30;0.30;;;13.20;99.90;;;;;;4998668;28;20187;-80
2022/04/22 07:47:48;;;;;;;0.90;0.80;;;13.10;99.90;;;;;;5000725;28;20282;-79
2022/04/22 07:50:15;;;;;;;0.30;0.30;;;12.90;99.90;;;;;;5000953;28;20285;-79
2022/04/22 07:52:44;;;;;;;2.23;1.67;;;12.60;99.90;;;;;;4999838;28;20188;-79
2022/04/22 07:55:10;;;;;;;0.90;0.90;;;13.00;99.90;;;;;;5014068;28;20195;-79
2022/04/22 07:57:36;;;;;;;0.53;0.53;;;13.10;99.90;;;;;;4999218;28;20172;-79
2022/04/22 08:00:03;;;;;;;1.80;1.10;;;13.20;99.90;;;;;;4999871;28;20305;-80
2022/04/22 08:02:29;;;;;;;1.20;0.90;;;13.00;99.90;;;;;;5004350;28;20622;-80
2022/04/22 08:04:54;;;;;;;0.43;0.43;;;13.30;99.90;;;;;;5004846;28;20194;-79
2022/04/22 08:07:20;;;;;;;0.67;0.67;;;13.10;99.90;;;;;;4998482;28;20199;-80
2022/04/22 08:09:46;;;;;;;0.40;0.40;;;12.90;99.90;;;;;;4998605;28;20214;-80
2022/04/22 08:12:13;;;;;;;0.63;0.60;;;13.10;99.90;;;;;;5000008;28;20181;-80
2022/04/22 08:14:39;;;;;;;1.20;0.77;;;13.10;99.90;;;;;;4997680;28;20238;-80
2022/04/22 08:17:06;;;;;;;1.73;0.67;;;12.90;99.90;;;;;;5000836;28;20187;-80
2022/04/22 08:19:32;;;;;;;1.03;0.93;;;13.00;99.90;;;;;;5002806;28;20787;-80
2022/04/22 08:21:58;;;;;;;1.83;1.73;;;13.40;99.90;;;;;;5002307;28;20191;-80
2022/04/22 08:24:24;;;;;;;0.87;0.87;;;13.20;99.90;;;;;;5002809;28;20187;-80
2022/04/22 08:26:50;;;;;;;1.17;0.50;;;13.20;99.90;;;;;;5008175;28;20183;-80
2022/04/22 08:29:16;;;;;;;1.97;0.77;;;13.50;99.90;;;;;;5002500;28;20199;-80
2022/04/22 08:31:42;;;;;;;2.30;0.80;;;13.40;99.90;;;;;;5005961;28;20215;-80
2022/04/22 08:34:08;;;;;;;0.97;0.73;;;13.70;99.90;;;;;;5006707;28;20697;-80
2022/04/22 08:36:33;;;;;;;1.57;1.47;;;13.60;99.90;;;;;;5000507;28;20227;-80
2022/04/22 08:38:59;;;;;;;0.40;0.40;;;13.70;99.90;;;;;;5006898;28;20198;-80
2022/04/22 08:41:26;;;;;;;0.90;0.90;;;13.70;99.90;;;;;;5000324;28;20185;-80
2022/04/22 08:43:56;;;;;;;1.13;0.67;;;13.80;99.90;;;;;;4998924;28;20184;-80
2022/04/22 08:51:51;;;;;;;0.97;0.90;;;14.20;99.90;;;;;;5000547;28;20195;-80
2022/04/22 08:54:17;;;;;;;8.60;0.80;;;14.30;99.90;;;;;;5014712;28;20193;-80
2022/04/22 08:56:44;;;;;;;1.70;0.87;;;14.40;99.90;;;;;;5013647;28;20256;-80
2022/04/22 08:59:09;;;;;;;0.87;0.87;;;14.50;99.90;;;;;;5006003;28;20798;-80
2022/04/22 09:01:37;;;;;;;0.60;0.60;;;14.60;99.90;;;;;;4997855;28;20188;-80
2022/04/22 09:04:04;;;;;;;1.03;0.90;;;14.40;99.90;;;;;;4997518;28;20266;-80
2022/04/22 09:06:30;;;;;;;0.80;0.80;;;14.50;99.90;;;;;;4999711;28;20186;-80
2022/04/22 09:08:57;;;;;;;1.97;0.83;;;14.60;99.90;;;;;;5006222;28;20232;-80
2022/04/22 09:11:23;;;;;;;0.83;0.60;;;14.60;99.90;;;;;;5000775;28;20551;-80
2022/04/22 09:13:49;;;;;;;1.80;0.87;;;14.70;99.90;;;;;;4999505;28;20254;-80
2022/04/22 09:16:19;;;;;;;1.10;0.40;;;14.80;99.90;;;;;;5005582;28;20196;-80
2022/04/22 09:18:46;;;;;;;0.90;0.90;;;14.80;99.90;;;;;;5005748;28;20618;-80
2022/04/22 09:21:15;;;;;;;0.97;0.77;;;14.90;99.90;;;;;;5000547;28;20320;-80
2022/04/22 09:23:41;;;;;;;1.23;0.83;;;15.10;99.90;;;;;;5004699;28;20192;-80
2022/04/22 09:26:25;;;;;;;1.10;1.10;;;15.20;99.90;;;;;;5003974;28;20209;-80
2022/04/22 09:29:10;;;;;;;1.03;0.87;;;15.20;99.90;;;;;;4999080;28;20206;-80
2022/04/22 09:31:46;;;;;;;0.93;0.93;;;15.20;99.90;;;;;;4999391;28;20301;-80
2022/04/22 09:34:12;;;;;;;1.33;0.73;;;15.50;99.90;;;;;;5013934;28;20205;-80
2022/04/22 09:44:59;;;;;;;0.63;0.63;;;15.90;99.90;;;;;;4998744;28;20236;-82
2022/04/22 09:47:27;;;;;;;1.30;1.17;;;16.10;99.90;;;;;;5005858;28;20189;-80
2022/04/22 09:49:54;;;;;;;1.30;1.07;;;16.30;99.90;;;;;;4997064;28;20264;-80
2022/04/22 09:52:29;;;;;;;1.20;1.20;;;15.90;99.90;;;;;;4998972;28;20210;-80
2022/04/22 09:55:01;;;;;;;2.23;1.30;;;16.00;99.90;;;;;;4998243;28;20692;-81
2022/04/22 09:57:28;;;;;;;1.13;1.03;;;15.70;99.90;;;;;;5005214;28;20594;-80
2022/04/22 09:59:55;;;;;;;1.57;1.20;;;15.90;99.90;;;;;;4998727;28;20884;-80
2022/04/22 10:02:25;;;;;;;1.20;0.90;;;16.20;99.90;;;;;;4999523;28;20183;-80
2022/04/22 10:04:53;;;;;;;2.13;0.77;;;16.50;99.90;;;;;;5000077;28;20187;-80
2022/04/22 10:07:22;;;;;;;1.83;0.73;;;16.80;99.90;;;;;;4996848;28;20205;-80
2022/04/22 10:09:49;;;;;;;0.80;0.77;;;16.90;99.90;;;;;;5014281;28;20219;-80
2022/04/22 10:12:18;;;;;;;0.73;0.67;;;16.60;99.90;;;;;;4999512;28;20224;-80
2022/04/22 10:14:44;;;;;;;0.50;0.50;;;16.50;99.90;;;;;;4998401;28;20242;-80
2022/04/22 10:17:11;;;;;;;3.20;0.83;;;16.80;99.90;;;;;;5005904;28;20214;-80
2022/04/22 10:19:37;;;;;;;1.93;0.90;;;16.70;99.90;;;;;;5003940;28;20214;-80
2022/04/22 10:22:04;;;;;;;0.87;0.87;;;16.70;99.90;;;;;;5000157;28;20190;-80
2022/04/22 10:24:33;;;;;;;0.90;0.73;;;16.60;99.90;;;;;;5004085;28;20244;-80
2022/04/22 10:27:03;;;;;;;1.17;1.07;;;16.40;99.90;;;;;;4999966;28;20209;-80
2022/04/22 10:29:30;;;;;;;1.93;1.23;;;16.60;99.90;;;;;;4999925;28;20259;-80
2022/04/22 10:31:56;;;;;;;0.67;0.67;;;16.60;99.90;;;;;;5005362;28;20601;-80
2022/04/22 10:34:39;;;;;;;1.47;1.30;;;16.90;99.90;;;;;;4998834;28;20187;-80
2022/04/22 10:37:25;;;;;;;1.30;1.07;;;16.70;99.90;;;;;;5000443;28;20187;-80
2022/04/22 10:39:52;;;;;;;0.80;0.80;;;17.00;99.90;;;;;;5014201;28;20348;-80
2022/04/22 10:42:18;;;;;;;0.70;0.70;;;17.20;99.90;;;;;;4999244;28;20699;-80
2022/04/22 10:47:58;;;;;;;0.97;0.87;;;17.80;99.90;;;;;;5004577;28;21111;-80
2022/04/22 10:50:33;;;;;;;2.13;1.83;;;17.80;99.90;;;;;;4997407;28;20640;-80
2022/04/22 10:53:05;;;;;;;0.90;0.90;;;17.30;99.90;;;;;;5001995;28;20179;-80
2022/04/22 10:55:34;;;;;;;0.77;0.70;;;17.60;99.90;;;;;;5001871;28;20199;-80
2022/04/22 10:58:12;;;;;;;0.70;0.70;;;17.90;99.90;;;;;;5003428;28;20593;-80
2022/04/22 11:00:43;;;;;;;1.20;1.17;;;17.80;99.90;;;;;;5001631;28;20187;-80
2022/04/22 11:03:22;;;;;;;0.77;0.40;;;17.80;99.90;;;;;;5008291;28;20192;-80
2022/04/22 11:05:53;;;;;;;0.43;0.43;;;17.60;99.90;;;;;;5002698;28;20240;-79
2022/04/22 11:08:58;;;;;;;0.70;0.70;;;18.10;99.90;;;;;;5000263;28;20195;-80
2022/04/22 11:11:24;;;;;;;0.93;0.93;;;17.80;99.90;;;;;;5001121;28;20249;-80
2022/04/22 11:13:51;;;;;;;0.80;0.80;;;17.60;99.90;;;;;;5017067;28;20186;-81
2022/04/22 11:16:20;;;;;;;2.83;0.70;;;17.70;99.90;;;;;;5008024;28;20211;-80
2022/04/22 11:19:23;;;;;;;1.03;1.03;;;17.70;99.90;;;;;;5017804;28;20255;-80
2022/04/22 11:21:52;;;;;;;2.27;0.50;;;17.70;99.90;;;;;;5002352;28;20188;-82
2022/04/22 11:24:23;;;;;;;0.80;0.80;;;18.00;99.90;;;;;;5010605;28;20178;-83
2022/04/22 11:26:49;;;;;;;1.83;1.70;;;18.40;99.90;;;;;;5003787;28;21225;-82
2022/04/22 11:29:16;;;;;;;2.03;0.80;;;18.30;99.90;;;;;;5018760;28;20212;-82
2022/04/22 11:31:56;;;;;;;0.70;0.63;;;18.20;99.90;;;;;;5004650;28;20594;-82
2022/04/22 11:35:00;;;;;;;0.67;0.67;;;18.50;99.90;;;;;;5010233;28;20260;-83
2022/04/22 11:37:26;;;;;;;0.83;0.83;;;18.00;99.90;;;;;;5000238;28;20186;-83
2022/04/22 11:39:51;;;;;;;0.60;0.60;;;17.90;99.90;;;;;;5001996;28;20310;-82
2022/04/22 11:42:18;;;;;;;1.53;1.27;;;18.00;99.90;;;;;;5000650;28;20191;-83
2022/04/22 11:45:07;;;;;;;1.90;1.13;;;18.20;99.90;;;;;;5001111;28;20271;-83
2022/04/22 11:47:32;;;;;;;1.00;1.00;;;18.20;99.90;;;;;;5005259;28;20219;-83
2022/04/22 11:49:59;;;;;;;0.73;0.73;;;18.60;99.90;;;;;;5002006;28;20242;-82
2022/04/22 11:52:27;;;;;;;2.20;1.40;;;18.80;99.90;;;;;;5017010;28;20633;-82
2022/04/22 11:55:04;;;;;;;1.60;0.87;;;18.70;99.90;;;;;;5017566;28;20211;-83
2022/04/22 11:57:39;;;;;;;1.33;1.23;;;18.40;99.90;;;;;;5002760;28;20196;-83
2022/04/22 12:05:51;;;;;;;1.37;1.03;;;18.40;99.90;;;;;;5003147;28;20198;-82
2022/04/22 12:08:17;;;;;;;0.93;0.70;;;18.90;99.90;;;;;;5002838;28;20203;-83
2022/04/22 12:10:45;;;;;;;1.20;1.10;;;18.60;99.90;;;;;;5003912;28;20195;-84
2022/04/22 12:13:13;;;;;;;0.33;0.33;;;18.40;99.90;;;;;;5007790;28;20187;-83
2022/04/22 12:15:39;;;;;;;0.67;0.67;;;18.70;99.90;;;;;;5008555;28;20214;-82
2022/04/22 12:18:06;;;;;;;3.63;0.90;;;19.00;99.90;;;;;;5008073;28;20183;-81
2022/04/22 12:20:32;;;;;;;0.77;0.77;;;19.40;99.90;;;;;;4999706;28;20591;-81
2022/04/22 12:22:58;;;;;;;4.50;1.43;;;18.70;99.90;;;;;;5001525;28;20222;-81
2022/04/22 12:25:24;;;;;;;1.77;1.63;;;19.00;99.90;;;;;;5014865;28;20243;-81
2022/04/22 12:28:13;;;;;;;1.30;1.20;;;18.60;99.90;;;;;;4998898;28;20337;-80
2022/04/22 12:30:40;;;;;;;1.80;1.20;;;18.70;99.90;;;;;;4998785;28;20195;-81
2022/04/22 12:33:08;;;;;;;2.10;1.17;;;18.90;99.90;;;;;;5001106;28;20732;-80
2022/04/22 12:35:33;;;;;;;1.30;1.20;;;19.00;99.90;;;;;;5000628;28;20218;-80
2022/04/22 12:38:05;;;;;;;2.00;1.20;;;19.00;99.90;;;;;;5014718;28;20189;-80
2022/04/22 12:40:44;;;;;;;0.90;0.87;;;19.10;99.90;;;;;;4999102;28;20684;-80
2022/04/22 12:43:27;;;;;;;2.37;1.30;;;19.30;99.90;;;;;;5001808;28;20179;-82
2022/04/22 12:54:12;;;;;;;0.80;0.80;;;18.80;99.90;;;;;;5001287;28;20237;-83
2022/04/22 12:56:38;;;;;;;0.93;0.80;;;18.80;99.90;;;;;;5001392;28;20204;-82
2022/04/22 12:59:04;;;;;;;0.97;0.60;;;18.90;99.90;;;;;;5006452;28;20203;-81
2022/04/22 13:01:40;;;;;;;0.90;0.80;;;18.90;99.90;;;;;;5004399;28;20211;-80
2022/04/22 13:04:07;;;;;;;1.37;0.90;;;19.00;99.90;;;;;;5015038;28;20265;-81
2022/04/22 13:06:44;;;;;;;1.13;1.00;;;19.00;99.90;;;;;;5000551;28;20183;-81
2022/04/22 13:09:11;;;;;;;1.37;0.87;;;18.90;99.90;;;;;;5006678;28;21106;-81
2022/04/22 13:11:37;;;;;;;0.80;0.77;;;18.80;99.90;;;;;;5001990;28;20192;-81
2022/04/22 13:14:04;;;;;;;0.50;0.50;;;19.10;99.90;;;;;;5005056;28;20229;-81
2022/04/22 13:16:30;;;;;;;0.77;0.77;;;19.10;99.90;;;;;;5006105;28;20207;-81
2022/04/22 13:18:57;;;;;;;0.70;0.70;;;19.10;99.90;;;;;;5006114;28;20200;-81
2022/04/22 13:21:23;;;;;;;0.60;0.53;;;19.00;99.90;;;;;;5015142;28;20194;-81
2022/04/22 13:23:50;;;;;;;1.47;1.00;;;19.50;99.90;;;;;;5007320;28;20196;-81
2022/04/22 13:26:16;;;;;;;0.83;0.83;;;19.40;99.90;;;;;;5016539;28;20314;-81
2022/04/22 13:28:42;;;;;;;0.60;0.60;;;19.20;99.90;;;;;;5001261;28;20207;-81
2022/04/22 13:31:08;;;;;;;1.53;1.43;;;19.30;99.90;;;;;;5001189;28;21035;-81
2022/04/22 13:33:34;;;;;;;0.57;0.57;;;19.50;99.90;;;;;;5003552;28;20198;-80
2022/04/22 13:36:02;;;;;;;2.70;1.17;;;19.80;99.90;;;;;;4999445;28;20211;-83
2022/04/22 13:38:28;;;;;;;3.00;1.20;;;19.30;99.90;;;;;;5004783;28;20209;-80
2022/04/22 13:40:54;;;;;;;0.73;0.73;;;19.20;99.90;;;;;;5001622;28;20190;-82
2022/04/22 13:43:20;;;;;;;0.93;0.70;;;19.50;99.90;;;;;;5000880;28;20183;-82
2022/04/22 13:53:57;;;;;;;1.10;1.00;;;19.10;99.90;;;;;;4999469;28;20214;-81
2022/04/22 13:56:23;;;;;;;1.33;0.93;;;19.00;99.90;;;;;;5002598;28;20200;-81
2022/04/22 13:58:48;;;;;;;0.90;0.77;;;19.10;99.90;;;;;;5005494;28;20209;-81
2022/04/22 14:01:14;;;;;;;1.47;0.93;;;19.20;99.90;;;;;;4998943;28;20202;-81
2022/04/22 14:03:39;;;;;;;0.90;0.70;;;19.10;99.90;;;;;;4998301;28;20191;-82
2022/04/22 14:06:05;;;;;;;0.73;0.73;;;19.10;99.90;;;;;;5014350;28;20210;-81
2022/04/22 14:08:30;;;;;;;0.53;0.50;;;19.50;99.90;;;;;;5013294;28;20223;-80
2022/04/22 14:10:56;;;;;;;3.30;1.30;;;19.50;99.90;;;;;;4998551;28;20273;-80
2022/04/22 14:13:21;;;;;;;1.07;1.03;;;19.60;99.90;;;;;;5004714;28;20286;-80
2022/04/22 14:15:47;;;;;;;1.53;1.07;;;19.30;99.90;;;;;;5013610;28;20350;-81